createdAt,value
2019-02-04T00:04:23.415Z,5.70
2019-02-04T00:07:11.425Z,5.10
2019-02-04T00:09:59.482Z,4.87
2019-02-04T00:12:47.557Z,5.13
2019-02-04T00:15:30.609Z,5.57
2019-02-04T00:18:11.879Z,6.40
2019-02-04T00:20:52.385Z,6.57
2019-02-04T00:23:33.952Z,9.67
2019-02-04T00:26:14.529Z,8.03
2019-02-04T00:28:55.403Z,7.73
2019-02-04T00:31:36.269Z,5.40
2019-02-04T00:34:16.915Z,4.90
2019-02-04T00:36:57.413Z,6.27
2019-02-04T00:39:37.987Z,5.33
2019-02-04T00:42:18.868Z,5.77
2019-02-04T00:44:59.494Z,6.00
2019-02-04T00:47:40.100Z,5.53
2019-02-04T00:50:20.730Z,5.07
2019-02-04T00:53:01.823Z,4.70
2019-02-04T00:55:42.303Z,6.10
2019-02-04T00:58:22.813Z,6.37
2019-02-04T01:01:03.953Z,5.23
2019-02-04T01:03:45.114Z,5.17
2019-02-04T01:06:25.528Z,6.17
2019-02-04T01:09:05.936Z,5.17
2019-02-04T01:11:46.982Z,5.20
2019-02-04T01:14:27.654Z,4.67
2019-02-04T01:17:08.115Z,5.93
2019-02-04T01:19:48.886Z,6.20
2019-02-04T01:22:30.131Z,5.00
2019-02-04T01:25:10.735Z,5.20
2019-02-04T01:27:51.914Z,4.77
2019-02-04T01:30:32.544Z,5.20
2019-02-04T01:33:13.507Z,7.93
2019-02-04T01:35:54.315Z,10.27
2019-02-04T01:38:35.340Z,8.47
2019-02-04T01:41:16.028Z,7.70
2019-02-04T01:43:57.005Z,7.13
2019-02-04T01:46:37.405Z,7.03
2019-02-04T01:49:18.270Z,9.77
2019-02-04T01:51:58.819Z,6.23
2019-02-04T01:54:39.471Z,6.80
2019-02-04T01:57:20.072Z,7.00
2019-02-04T02:00:00.472Z,7.33
2019-02-04T02:02:41.062Z,7.30
2019-02-04T02:05:21.365Z,6.40
2019-02-04T02:08:01.891Z,6.70
2019-02-04T02:10:42.275Z,6.20
2019-02-04T02:13:22.774Z,6.87
2019-02-04T02:16:03.447Z,6.07
2019-02-04T02:18:43.753Z,6.90
2019-02-04T02:21:25.239Z,5.20
2019-02-04T02:24:06.047Z,4.97
2019-02-04T02:26:46.606Z,4.33
2019-02-04T02:29:27.243Z,5.07
2019-02-04T02:32:07.868Z,4.60
2019-02-04T02:34:48.661Z,4.30
2019-02-04T02:37:29.311Z,4.23
2019-02-04T02:40:10.043Z,5.60
2019-02-04T02:42:50.848Z,4.37
2019-02-04T02:45:32.408Z,4.60
2019-02-04T02:48:13.201Z,4.30
2019-02-04T02:50:53.931Z,3.83
2019-02-04T02:53:34.490Z,3.80
2019-02-04T02:56:15.167Z,4.03
2019-02-04T02:58:55.983Z,4.40
2019-02-04T03:01:36.714Z,4.03
2019-02-04T03:04:17.325Z,4.73
2019-02-04T03:06:58.006Z,4.77
2019-02-04T03:09:38.631Z,4.10
2019-02-04T03:12:19.363Z,4.53
2019-02-04T03:15:00.301Z,4.03
2019-02-04T03:17:51.442Z,4.40
2019-02-04T03:20:23.453Z,6.10
2019-02-04T03:23:04.443Z,4.30
2019-02-04T03:25:44.851Z,4.55
2019-02-04T03:28:25.290Z,4.43
2019-02-04T03:31:05.975Z,4.55
2019-02-04T03:33:46.779Z,4.87
2019-02-04T03:36:27.722Z,3.87
2019-02-04T03:39:08.640Z,4.70
2019-02-04T03:41:49.079Z,4.10
2019-02-04T03:44:29.568Z,4.15
2019-02-04T03:47:10.380Z,3.87
2019-02-04T03:49:51.069Z,3.83
2019-02-04T03:52:32.046Z,4.17
2019-02-04T03:55:13.134Z,3.80
2019-02-04T03:57:53.377Z,3.95
2019-02-04T04:00:33.979Z,4.93
2019-02-04T04:03:14.944Z,3.50
2019-02-04T04:05:55.230Z,3.57
2019-02-04T04:08:36.227Z,3.53
2019-02-04T04:11:16.730Z,3.62
2019-02-04T04:13:57.349Z,3.40
2019-02-04T04:16:38.090Z,4.22
2019-02-04T04:19:19.518Z,4.10
2019-02-04T04:22:00.091Z,3.92
2019-02-04T04:24:40.667Z,3.50
2019-02-04T04:27:22.532Z,4.05
2019-02-04T04:30:02.843Z,4.55
2019-02-04T04:32:43.692Z,4.40
2019-02-04T04:35:25.407Z,4.37
2019-02-04T04:38:05.851Z,4.62
2019-02-04T04:40:46.482Z,6.97
2019-02-04T04:43:27.190Z,12.13
2019-02-04T04:46:08.134Z,10.30
2019-02-04T04:48:48.746Z,9.53
2019-02-04T04:51:29.588Z,8.45
2019-02-04T04:54:10.375Z,9.23
2019-02-04T04:56:51.001Z,7.12
2019-02-04T04:59:31.655Z,7.57
2019-02-04T05:02:12.278Z,5.53
2019-02-04T05:04:53.095Z,6.60
2019-02-04T05:07:33.700Z,4.67
2019-02-04T05:10:14.438Z,5.90
2019-02-04T05:12:55.078Z,6.00
2019-02-04T05:15:35.707Z,6.12
2019-02-04T05:18:16.293Z,7.50
2019-02-04T05:20:57.034Z,6.57
2019-02-04T05:23:38.110Z,10.53
2019-02-04T05:26:18.605Z,10.08
2019-02-04T05:28:59.130Z,11.93
2019-02-04T05:31:39.781Z,12.87
2019-02-04T05:34:20.571Z,11.40
2019-02-04T05:37:01.178Z,11.57
2019-02-04T05:39:41.615Z,11.63
2019-02-04T05:42:22.448Z,11.63
2019-02-04T05:45:03.059Z,11.73
2019-02-04T05:47:43.715Z,13.40
2019-02-04T05:50:24.676Z,12.60
2019-02-04T05:53:05.023Z,12.70
2019-02-04T05:55:45.774Z,12.40
2019-02-04T05:58:26.443Z,13.57
2019-02-04T06:01:07.383Z,10.67
2019-02-04T06:03:47.988Z,11.10
2019-02-04T06:06:28.689Z,11.80
2019-02-04T06:09:09.447Z,12.23
2019-02-04T06:11:50.302Z,11.13
2019-02-04T06:14:30.953Z,13.33
2019-02-04T06:17:11.586Z,12.80
2019-02-04T06:19:52.251Z,12.83
2019-02-04T06:22:32.999Z,12.00
2019-02-04T06:25:13.746Z,13.37
2019-02-04T06:27:54.327Z,14.57
2019-02-04T06:30:34.777Z,13.13
2019-02-04T06:33:15.639Z,14.10
2019-02-04T06:35:56.544Z,13.80
2019-02-04T06:38:37.363Z,14.40
2019-02-04T06:41:18.314Z,14.80
2019-02-04T06:43:59.319Z,12.70
2019-02-04T06:46:39.690Z,12.80
2019-02-04T06:49:20.479Z,13.80
2019-02-04T06:52:01.210Z,12.77
2019-02-04T06:54:42.437Z,13.70
2019-02-04T06:57:22.736Z,12.30
2019-02-04T07:00:03.559Z,13.23
2019-02-04T07:02:44.193Z,12.70
2019-02-04T07:05:25.467Z,12.33
2019-02-04T07:08:06.408Z,13.83
2019-02-04T07:10:46.986Z,12.67
2019-02-04T07:13:27.631Z,14.47
2019-02-04T07:16:08.268Z,13.70
2019-02-04T07:18:48.971Z,12.97
2019-02-04T07:21:29.856Z,13.97
2019-02-04T07:24:10.287Z,13.10
2019-02-04T07:26:50.835Z,11.67
2019-02-04T07:29:31.522Z,12.50
2019-02-04T07:32:12.290Z,12.97
2019-02-04T07:34:53.068Z,13.00
2019-02-04T07:37:33.941Z,13.15
2019-02-04T07:40:14.586Z,12.97
2019-02-04T07:42:55.169Z,12.77
2019-02-04T07:45:35.982Z,12.07
2019-02-04T07:48:16.775Z,13.10
2019-02-04T07:50:57.342Z,12.60
2019-02-04T07:53:38.261Z,11.90
2019-02-04T07:56:19.000Z,12.67
2019-02-04T07:58:59.467Z,12.53
2019-02-04T08:01:40.468Z,11.90
2019-02-04T08:04:21.159Z,11.47
2019-02-04T08:07:02.468Z,12.30
2019-02-04T08:09:43.210Z,12.67
2019-02-04T08:12:23.790Z,11.27
2019-02-04T08:15:04.614Z,10.13
2019-02-04T08:17:45.375Z,11.10
2019-02-04T08:20:25.783Z,10.90
2019-02-04T08:23:06.302Z,12.07
2019-02-04T08:25:47.086Z,12.00
2019-02-04T08:28:27.790Z,12.13
2019-02-04T08:31:08.607Z,11.13
2019-02-04T08:33:49.461Z,11.47
2019-02-04T08:36:30.155Z,10.63
2019-02-04T08:39:10.666Z,9.93
2019-02-04T08:41:51.302Z,11.17
2019-02-04T08:44:32.051Z,10.03
2019-02-04T08:47:22.551Z,9.60
2019-02-04T08:49:58.460Z,11.40
2019-02-04T08:52:38.039Z,9.97
2019-02-04T08:55:18.737Z,9.07
2019-02-04T08:57:59.594Z,8.83
2019-02-04T09:00:40.089Z,8.83
2019-02-04T09:03:20.577Z,9.27
2019-02-04T09:06:01.671Z,9.07
2019-02-04T09:08:42.752Z,9.57
2019-02-04T09:11:23.531Z,10.27
2019-02-04T09:14:03.990Z,10.53
2019-02-04T09:16:44.686Z,10.10
2019-02-04T09:19:25.736Z,10.60
2019-02-04T09:22:06.339Z,11.10
2019-02-04T09:24:47.199Z,10.93
2019-02-04T09:27:27.958Z,10.40
2019-02-04T09:30:08.836Z,10.33
2019-02-04T09:32:49.690Z,10.00
2019-02-04T09:35:30.579Z,9.53
2019-02-04T09:38:10.930Z,9.47
2019-02-04T09:40:51.883Z,10.90
2019-02-04T09:43:32.307Z,11.07
2019-02-04T09:46:13.303Z,11.47
2019-02-04T09:48:53.652Z,11.90
2019-02-04T09:51:34.139Z,11.47
2019-02-04T09:54:14.643Z,11.73
2019-02-04T09:56:55.554Z,11.73
2019-02-04T09:59:36.182Z,10.33
2019-02-04T10:02:16.949Z,11.83
2019-02-04T10:04:57.631Z,9.77
2019-02-04T10:07:38.259Z,9.47
2019-02-04T10:10:18.999Z,10.07
2019-02-04T10:12:59.487Z,10.93
2019-02-04T10:15:40.293Z,11.33
2019-02-04T10:18:20.771Z,9.60
2019-02-04T10:21:01.400Z,10.17
2019-02-04T10:23:42.533Z,9.27
2019-02-04T10:26:22.927Z,10.53
2019-02-04T10:29:03.548Z,10.80
2019-02-04T10:31:44.409Z,10.40
2019-02-04T10:34:25.795Z,9.80
2019-02-04T10:37:07.357Z,10.40
2019-02-04T10:39:47.779Z,9.27
2019-02-04T10:42:28.470Z,10.00
2019-02-04T10:45:09.219Z,9.97
2019-02-04T10:47:49.690Z,9.70
2019-02-04T10:50:30.156Z,10.10
2019-02-04T10:53:10.956Z,11.17
2019-02-04T10:55:52.266Z,10.67
2019-02-04T10:58:32.750Z,10.07
2019-02-04T11:01:13.596Z,8.73
2019-02-04T11:03:54.321Z,9.30
2019-02-04T11:06:34.897Z,10.20
2019-02-04T11:09:16.211Z,9.00
2019-02-04T11:11:57.100Z,8.33
2019-02-04T11:14:37.860Z,7.30
2019-02-04T11:17:18.242Z,8.60
2019-02-04T11:19:58.704Z,8.90
2019-02-04T11:22:39.344Z,8.60
2019-02-04T11:25:19.780Z,7.67
2019-02-04T11:28:00.203Z,7.27
2019-02-04T11:30:41.067Z,7.17
2019-02-04T11:33:21.797Z,7.60
2019-02-04T11:36:02.687Z,8.70
2019-02-04T11:38:43.848Z,6.93
2019-02-04T11:41:24.369Z,7.53
2019-02-04T11:44:05.256Z,7.73
2019-02-04T11:46:45.819Z,6.90
2019-02-04T11:49:26.280Z,7.93
2019-02-04T11:52:06.650Z,7.53
2019-02-04T11:54:48.075Z,7.37
2019-02-04T11:57:29.008Z,9.10
2019-02-04T12:00:09.984Z,8.83
2019-02-04T12:02:50.841Z,8.63
2019-02-04T12:05:32.390Z,9.10
2019-02-04T12:08:12.755Z,8.27
2019-02-04T12:10:54.311Z,8.47
2019-02-04T12:13:35.041Z,8.10
2019-02-04T12:16:15.945Z,8.47
2019-02-04T12:18:57.591Z,8.67
2019-02-04T12:21:38.019Z,7.53
2019-02-04T12:24:18.835Z,7.60
2019-02-04T12:26:59.655Z,9.10
2019-02-04T12:29:40.211Z,7.70
2019-02-04T12:32:20.755Z,9.03
2019-02-04T12:35:02.256Z,8.43
2019-02-04T12:37:43.028Z,7.67
2019-02-04T12:40:23.744Z,8.90
2019-02-04T12:43:05.090Z,9.60
2019-02-04T12:45:45.877Z,9.30
2019-02-04T12:48:26.345Z,9.53
2019-02-04T12:51:07.391Z,9.17
2019-02-04T12:53:48.813Z,9.10
2019-02-04T12:56:29.619Z,8.70
2019-02-04T12:59:10.220Z,9.67
2019-02-04T13:01:50.843Z,9.13
2019-02-04T13:04:31.348Z,11.10
2019-02-04T13:07:13.098Z,9.13
2019-02-04T13:09:53.571Z,9.27
2019-02-04T13:12:34.118Z,9.53
2019-02-04T13:15:14.783Z,8.17
2019-02-04T13:17:55.379Z,9.57
2019-02-04T13:20:35.707Z,8.70
2019-02-04T13:23:16.476Z,9.60
2019-02-04T13:25:57.102Z,9.90
2019-02-04T13:28:37.633Z,9.70
2019-02-04T13:31:18.114Z,9.93
2019-02-04T13:33:59.055Z,10.47
2019-02-04T13:36:39.319Z,9.07
2019-02-04T13:39:20.033Z,10.53
2019-02-04T13:42:00.950Z,8.53
2019-02-04T13:44:41.518Z,9.40
2019-02-04T13:47:22.198Z,9.67
2019-02-04T13:50:02.824Z,9.10
2019-02-04T13:52:43.283Z,9.90
2019-02-04T13:55:23.871Z,9.30
2019-02-04T13:58:04.562Z,10.23
2019-02-04T14:00:45.466Z,10.30
2019-02-04T14:03:26.195Z,11.20
2019-02-04T14:06:06.888Z,8.80
2019-02-04T14:08:47.358Z,10.73
2019-02-04T14:11:28.030Z,9.03
2019-02-04T14:14:08.887Z,10.60
2019-02-04T14:16:49.358Z,9.13
2019-02-04T14:19:30.196Z,9.30
2019-02-04T14:22:10.753Z,10.10
2019-02-04T14:24:51.277Z,10.33
2019-02-04T14:27:31.710Z,8.33
2019-02-04T14:30:12.163Z,8.40
2019-02-04T14:32:52.943Z,10.20
2019-02-04T14:35:33.661Z,9.73
2019-02-04T14:38:14.754Z,9.70
2019-02-04T14:40:56.171Z,10.57
2019-02-04T14:43:37.235Z,9.33
2019-02-04T14:46:17.642Z,10.17
2019-02-04T14:48:58.128Z,9.63
2019-02-04T14:51:38.930Z,8.37
2019-02-04T14:54:20.015Z,8.43
2019-02-04T14:57:01.110Z,8.93
2019-02-04T14:59:42.044Z,9.87
2019-02-04T15:02:22.892Z,9.50
2019-02-04T15:05:03.294Z,9.80
2019-02-04T15:07:44.247Z,8.60
2019-02-04T15:10:24.884Z,7.23
2019-02-04T15:13:08.265Z,9.13
2019-02-04T15:15:48.771Z,8.13
2019-02-04T15:18:29.504Z,8.27
2019-02-04T15:21:10.195Z,9.70
2019-02-04T15:23:51.202Z,8.00
2019-02-04T15:26:32.064Z,9.63
2019-02-04T15:29:13.331Z,8.63
2019-02-04T15:31:54.058Z,8.30
2019-02-04T15:34:34.693Z,9.53
2019-02-04T15:37:15.342Z,8.80
2019-02-04T15:39:56.162Z,8.50
2019-02-04T15:42:36.947Z,9.13
2019-02-04T15:45:17.610Z,8.80
2019-02-04T15:47:58.475Z,9.90
2019-02-04T15:50:39.460Z,8.60
2019-02-04T15:53:20.409Z,7.80
2019-02-04T15:56:01.047Z,9.27
2019-02-04T15:58:41.747Z,8.93
2019-02-04T16:01:22.299Z,8.90
2019-02-04T16:04:03.394Z,9.33
2019-02-04T16:06:44.926Z,9.40
2019-02-04T16:09:25.673Z,8.70
2019-02-04T16:12:06.490Z,7.80
2019-02-04T16:14:48.112Z,7.80
2019-02-04T16:17:28.621Z,7.67
2019-02-04T16:20:09.427Z,8.47
2019-02-04T16:22:58.120Z,8.90
2019-02-04T16:25:32.711Z,7.50
2019-02-04T16:28:13.378Z,7.90
2019-02-04T16:30:54.164Z,8.43
2019-02-04T16:33:34.901Z,9.80
2019-02-04T16:36:15.821Z,8.57
2019-02-04T16:38:56.764Z,7.20
2019-02-04T16:41:38.202Z,8.10
2019-02-04T16:44:18.776Z,8.47
2019-02-04T16:46:59.956Z,8.57
2019-02-04T16:49:40.928Z,8.40
2019-02-04T16:52:21.742Z,8.57
2019-02-04T16:55:02.465Z,8.30
2019-02-04T16:57:43.042Z,8.00
2019-02-04T17:00:23.991Z,7.93
2019-02-04T17:03:05.171Z,8.43
2019-02-04T17:05:45.443Z,9.17
2019-02-04T17:08:26.094Z,10.43
2019-02-04T17:11:06.794Z,9.60
2019-02-04T17:13:47.419Z,8.60
2019-02-04T17:16:28.067Z,9.23
2019-02-04T17:19:08.590Z,9.20
2019-02-04T17:21:49.602Z,8.23
2019-02-04T17:24:30.231Z,7.67
2019-02-04T17:27:11.015Z,10.10
2019-02-04T17:29:51.766Z,9.17
2019-02-04T17:32:32.392Z,9.20
2019-02-04T17:35:13.232Z,8.90
2019-02-04T17:37:53.862Z,8.70
2019-02-04T17:40:34.659Z,9.10
2019-02-04T17:43:15.626Z,7.57
2019-02-04T17:45:56.150Z,9.10
2019-02-04T17:48:36.920Z,8.00
2019-02-04T17:51:17.707Z,7.80
2019-02-04T17:53:58.883Z,7.00
2019-02-04T17:56:39.628Z,5.63
2019-02-04T17:59:23.091Z,6.57
2019-02-04T18:02:03.304Z,6.80
2019-02-04T18:04:44.166Z,5.83
2019-02-04T18:07:24.823Z,6.40
2019-02-04T18:10:05.730Z,6.97
2019-02-04T18:12:46.704Z,5.60
2019-02-04T18:15:27.882Z,5.77
2019-02-04T18:18:08.930Z,5.90
2019-02-04T18:20:49.766Z,6.33
2019-02-04T18:23:45.560Z,5.77
2019-02-04T18:26:27.833Z,6.07
2019-02-04T18:29:17.331Z,5.80
2019-02-04T18:32:05.703Z,5.97
2019-02-04T18:34:53.691Z,5.80
2019-02-04T18:37:43.455Z,5.50
2019-02-04T18:40:31.459Z,5.23
2019-02-04T18:43:19.435Z,6.10
2019-02-04T18:46:07.523Z,6.03
2019-02-04T18:48:57.604Z,6.83
2019-02-04T18:51:45.668Z,5.67
2019-02-04T18:54:33.639Z,5.13
2019-02-04T18:57:21.935Z,6.17
2019-02-04T19:03:24.977Z,5.03
2019-02-04T19:06:13.051Z,6.60
2019-02-04T19:09:01.031Z,4.93
2019-02-04T19:11:49.691Z,5.07
2019-02-04T19:14:30.362Z,5.73
2019-02-04T19:17:11.074Z,5.83
2019-02-04T19:19:51.907Z,6.33
2019-02-04T19:22:32.463Z,5.23
2019-02-04T19:25:13.401Z,5.13
2019-02-04T19:27:54.031Z,5.33
2019-02-04T19:30:35.063Z,5.27
2019-02-04T19:33:15.961Z,5.27
2019-02-04T19:35:56.758Z,5.40
2019-02-04T19:38:37.493Z,5.50
2019-02-04T19:41:17.866Z,5.40
2019-02-04T19:43:58.777Z,5.83
2019-02-04T19:46:39.385Z,5.03
2019-02-04T19:49:20.342Z,5.60
2019-02-04T19:52:01.219Z,5.63
2019-02-04T19:54:42.510Z,6.10
2019-02-04T19:57:23.258Z,5.37
2019-02-04T20:00:03.809Z,5.60
2019-02-04T20:02:44.404Z,5.67
2019-02-04T20:05:25.067Z,6.27
2019-02-04T20:08:05.611Z,6.10
2019-02-04T20:10:46.203Z,5.30
2019-02-04T20:13:26.622Z,5.83
2019-02-04T20:16:07.363Z,5.60
2019-02-04T20:18:47.747Z,5.10
2019-02-04T20:21:28.142Z,6.10
2019-02-04T20:24:08.775Z,5.30
2019-02-04T20:26:49.457Z,4.80
2019-02-04T20:29:30.127Z,4.80
2019-02-04T20:32:10.476Z,4.60
2019-02-04T20:34:51.123Z,5.10
2019-02-04T20:37:31.709Z,5.07
2019-02-04T20:40:12.311Z,5.23
2019-02-04T20:42:53.022Z,4.87
2019-02-04T20:45:34.423Z,4.70
2019-02-04T20:48:15.450Z,5.10
2019-02-04T20:50:56.475Z,4.37
2019-02-04T20:53:39.115Z,5.03
2019-02-04T20:56:19.739Z,4.90
2019-02-04T20:59:00.294Z,4.37
2019-02-04T21:01:41.185Z,4.20
2019-02-04T21:04:22.404Z,4.47
2019-02-04T21:07:03.001Z,4.70
2019-02-04T21:09:44.466Z,5.00
2019-02-04T21:12:24.996Z,4.60
2019-02-04T21:15:05.499Z,4.37
2019-02-04T21:17:46.803Z,4.47
2019-02-04T21:20:27.738Z,4.50
2019-02-04T21:23:08.818Z,4.40
2019-02-04T21:25:49.325Z,4.57
2019-02-04T21:28:29.746Z,4.97
2019-02-04T21:31:11.325Z,4.50
2019-02-04T21:33:52.154Z,4.43
2019-02-04T21:36:33.355Z,4.70
2019-02-04T21:39:14.545Z,4.97
2019-02-04T21:41:54.970Z,4.93
2019-02-04T21:44:35.694Z,4.90
2019-02-04T21:47:16.447Z,5.20
2019-02-04T21:50:00.033Z,4.43
2019-02-04T21:52:39.662Z,4.60
2019-02-04T21:55:20.517Z,4.33
2019-02-04T21:58:01.192Z,4.17
2019-02-04T22:00:42.294Z,4.60
2019-02-04T22:03:22.990Z,4.80
2019-02-04T22:06:03.896Z,4.70
2019-02-04T22:08:44.679Z,5.43
2019-02-04T22:11:25.147Z,4.47
2019-02-04T22:14:05.827Z,4.13
2019-02-04T22:16:46.531Z,4.97
2019-02-04T22:19:27.305Z,4.30
2019-02-04T22:22:08.046Z,4.80
2019-02-04T22:24:48.799Z,3.97
2019-02-04T22:27:29.347Z,4.50
2019-02-04T22:30:10.070Z,4.90
2019-02-04T22:32:50.900Z,4.83
2019-02-04T22:35:31.557Z,4.70
2019-02-04T22:38:12.294Z,4.50
2019-02-04T22:40:52.943Z,5.17
2019-02-04T22:43:33.754Z,4.87
2019-02-04T22:46:15.078Z,5.00
2019-02-04T22:48:55.687Z,5.63
2019-02-04T22:51:36.452Z,5.57
2019-02-04T22:54:19.362Z,4.60
2019-02-04T22:56:59.859Z,4.53
2019-02-04T22:59:40.655Z,4.87
2019-02-04T23:02:22.146Z,4.50
2019-02-04T23:05:03.174Z,5.27
2019-02-04T23:07:43.840Z,5.70
2019-02-04T23:10:25.151Z,5.30
2019-02-04T23:13:05.672Z,5.40
2019-02-04T23:15:48.104Z,5.00
2019-02-04T23:18:28.899Z,4.97
2019-02-04T23:21:09.647Z,5.67
2019-02-04T23:23:50.599Z,4.90
2019-02-04T23:26:31.331Z,4.97
2019-02-04T23:29:12.059Z,5.20
2019-02-04T23:31:52.890Z,5.27
2019-02-04T23:34:33.654Z,4.90
2019-02-04T23:37:14.622Z,5.70
2019-02-04T23:39:55.190Z,4.90
2019-02-04T23:42:36.034Z,6.63
2019-02-04T23:45:16.706Z,5.47
2019-02-04T23:47:57.343Z,5.10
2019-02-04T23:50:38.133Z,5.07
2019-02-04T23:53:18.938Z,5.90
2019-02-04T23:55:59.739Z,5.80
2019-02-04T23:58:40.178Z,6.73
